sensor_id;sensor_type;location;lat;lon;timestamp;temperature;humidity
21031;DHT22;61072;47.808;7.636;2023-07-29T00:00:43;20.40;99.90
21031;DHT22;61072;47.808;7.636;2023-07-29T00:03:10;20.30;99.90
21031;DHT22;61072;47.808;7.636;2023-07-29T00:05:37;20.30;99.90
21031;DHT22;61072;47.808;7.636;2023-07-29T00:08:05;20.30;99.90
21031;DHT22;61072;47.808;7.636;2023-07-29T00:10:34;20.30;99.90
21031;DHT22;61072;47.808;7.636;2023-07-29T00:13:02;20.30;99.90
21031;DHT22;61072;47.808;7.636;2023-07-29T00:15:28;20.30;99.90
21031;DHT22;61072;47.808;7.636;2023-07-29T00:17:55;20.20;99.90
21031;DHT22;61072;47.808;7.636;2023-07-29T00:20:22;20.20;99.90
21031;DHT22;61072;47.808;7.636;2023-07-29T00:22:49;20.20;99.90
21031;DHT22;61072;47.808;7.636;2023-07-29T00:25:22;20.20;99.90
21031;DHT22;61072;47.808;7.636;2023-07-29T00:27:48;20.20;99.90
21031;DHT22;61072;47.808;7.636;2023-07-29T00:30:15;20.20;99.90
21031;DHT22;61072;47.808;7.636;2023-07-29T00:32:42;20.20;99.90
21031;DHT22;61072;47.808;7.636;2023-07-29T00:35:09;20.10;99.90
21031;DHT22;61072;47.808;7.636;2023-07-29T00:37:36;20.10;99.90
21031;DHT22;61072;47.808;7.636;2023-07-29T00:40:19;20.10;99.90
21031;DHT22;61072;47.808;7.636;2023-07-29T00:42:46;20.10;99.90
21031;DHT22;61072;47.808;7.636;2023-07-29T00:45:13;20.10;99.90
21031;DHT22;61072;47.808;7.636;2023-07-29T00:47:39;20.10;99.90
21031;DHT22;61072;47.808;7.636;2023-07-29T00:50:09;20.00;99.90
21031;DHT22;61072;47.808;7.636;2023-07-29T00:52:36;20.00;99.90
21031;DHT22;61072;47.808;7.636;2023-07-29T00:55:05;20.00;99.90
21031;DHT22;61072;47.808;7.636;2023-07-29T00:57:32;20.00;99.90
21031;DHT22;61072;47.808;7.636;2023-07-29T01:00:00;20.00;99.90
21031;DHT22;61072;47.808;7.636;2023-07-29T01:02:27;20.00;99.90
21031;DHT22;61072;47.808;7.636;2023-07-29T01:04:57;20.00;99.90
21031;DHT22;61072;47.808;7.636;2023-07-29T01:15:54;20.10;99.90
21031;DHT22;61072;47.808;7.636;2023-07-29T01:18:25;20.10;99.90
21031;DHT22;61072;47.808;7.636;2023-07-29T01:20:54;20.10;99.90
21031;DHT22;61072;47.808;7.636;2023-07-29T01:23:36;20.10;99.90
21031;DHT22;61072;47.808;7.636;2023-07-29T01:26:03;20.00;99.90
21031;DHT22;61072;47.808;7.636;2023-07-29T01:28:30;20.00;99.90
21031;DHT22;61072;47.808;7.636;2023-07-29T01:31:07;20.00;99.90
21031;DHT22;61072;47.808;7.636;2023-07-29T01:33:40;20.00;99.90
21031;DHT22;61072;47.808;7.636;2023-07-29T01:36:15;20.00;99.90
21031;DHT22;61072;47.808;7.636;2023-07-29T01:38:43;20.00;99.90
21031;DHT22;61072;47.808;7.636;2023-07-29T01:41:10;20.00;99.90
21031;DHT22;61072;47.808;7.636;2023-07-29T01:43:38;20.00;99.90
21031;DHT22;61072;47.808;7.636;2023-07-29T01:46:11;20.00;99.90
21031;DHT22;61072;47.808;7.636;2023-07-29T01:48:39;20.00;99.90
21031;DHT22;61072;47.808;7.636;2023-07-29T01:51:06;20.00;99.90
21031;DHT22;61072;47.808;7.636;2023-07-29T01:53:33;20.00;99.90
21031;DHT22;61072;47.808;7.636;2023-07-29T01:56:00;20.00;99.90
21031;DHT22;61072;47.808;7.636;2023-07-29T01:58:26;20.00;99.90
21031;DHT22;61072;47.808;7.636;2023-07-29T02:00:53;20.10;99.90
21031;DHT22;61072;47.808;7.636;2023-07-29T02:03:20;20.00;99.90
21031;DHT22;61072;47.808;7.636;2023-07-29T02:05:47;20.10;99.90
21031;DHT22;61072;47.808;7.636;2023-07-29T02:08:13;20.00;99.90
21031;DHT22;61072;47.808;7.636;2023-07-29T02:10:40;20.00;99.90
21031;DHT22;61072;47.808;7.636;2023-07-29T02:13:07;20.10;99.90
21031;DHT22;61072;47.808;7.636;2023-07-29T02:15:34;20.10;99.90
21031;DHT22;61072;47.808;7.636;2023-07-29T02:18:00;20.10;99.90
21031;DHT22;61072;47.808;7.636;2023-07-29T02:20:28;20.10;99.90
21031;DHT22;61072;47.808;7.636;2023-07-29T02:22:55;20.10;99.90
21031;DHT22;61072;47.808;7.636;2023-07-29T02:25:22;20.20;99.90
21031;DHT22;61072;47.808;7.636;2023-07-29T02:27:48;20.10;99.90
21031;DHT22;61072;47.808;7.636;2023-07-29T02:30:15;20.20;99.90
21031;DHT22;61072;47.808;7.636;2023-07-29T02:32:42;20.20;99.90
21031;DHT22;61072;47.808;7.636;2023-07-29T02:35:09;20.20;99.90
21031;DHT22;61072;47.808;7.636;2023-07-29T02:37:36;20.20;99.90
21031;DHT22;61072;47.808;7.636;2023-07-29T02:40:03;20.20;99.90
21031;DHT22;61072;47.808;7.636;2023-07-29T02:42:30;20.20;99.90
21031;DHT22;61072;47.808;7.636;2023-07-29T02:44:57;20.20;99.90
21031;DHT22;61072;47.808;7.636;2023-07-29T02:47:24;20.30;99.90
21031;DHT22;61072;47.808;7.636;2023-07-29T02:49:50;20.30;99.90
21031;DHT22;61072;47.808;7.636;2023-07-29T02:52:17;20.20;99.90
21031;DHT22;61072;47.808;7.636;2023-07-29T02:54:44;20.20;99.90
21031;DHT22;61072;47.808;7.636;2023-07-29T02:57:10;20.30;99.90
21031;DHT22;61072;47.808;7.636;2023-07-29T02:59:37;20.20;99.90
21031;DHT22;61072;47.808;7.636;2023-07-29T03:02:04;20.30;99.90
21031;DHT22;61072;47.808;7.636;2023-07-29T03:04:31;20.30;99.90
21031;DHT22;61072;47.808;7.636;2023-07-29T03:07:00;20.30;99.90
21031;DHT22;61072;47.808;7.636;2023-07-29T03:09:27;20.40;99.90
21031;DHT22;61072;47.808;7.636;2023-07-29T03:11:55;20.30;99.90
21031;DHT22;61072;47.808;7.636;2023-07-29T03:14:21;20.40;99.90
21031;DHT22;61072;47.808;7.636;2023-07-29T03:16:48;20.40;99.90
21031;DHT22;61072;47.808;7.636;2023-07-29T03:19:15;20.40;99.90
21031;DHT22;61072;47.808;7.636;2023-07-29T03:21:42;20.40;99.90
21031;DHT22;61072;47.808;7.636;2023-07-29T03:24:09;20.50;99.90
21031;DHT22;61072;47.808;7.636;2023-07-29T03:26:36;20.40;99.90
21031;DHT22;61072;47.808;7.636;2023-07-29T03:29:03;20.50;99.90
21031;DHT22;61072;47.808;7.636;2023-07-29T03:31:29;20.50;99.90
21031;DHT22;61072;47.808;7.636;2023-07-29T03:33:56;20.50;99.90
21031;DHT22;61072;47.808;7.636;2023-07-29T03:36:23;20.60;99.90
21031;DHT22;61072;47.808;7.636;2023-07-29T03:38:52;20.60;99.90
21031;DHT22;61072;47.808;7.636;2023-07-29T03:41:18;20.60;99.90
21031;DHT22;61072;47.808;7.636;2023-07-29T03:43:45;20.60;99.90
21031;DHT22;61072;47.808;7.636;2023-07-29T03:46:12;20.70;99.90
21031;DHT22;61072;47.808;7.636;2023-07-29T03:48:40;20.70;99.90
21031;DHT22;61072;47.808;7.636;2023-07-29T03:51:06;20.70;99.90
21031;DHT22;61072;47.808;7.636;2023-07-29T03:53:33;20.70;99.90
21031;DHT22;61072;47.808;7.636;2023-07-29T03:56:00;20.80;99.90
21031;DHT22;61072;47.808;7.636;2023-07-29T03:58:26;20.80;99.90
21031;DHT22;61072;47.808;7.636;2023-07-29T04:00:53;20.80;99.90
21031;DHT22;61072;47.808;7.636;2023-07-29T04:03:20;20.80;99.90
21031;DHT22;61072;47.808;7.636;2023-07-29T04:05:47;20.80;99.90
21031;DHT22;61072;47.808;7.636;2023-07-29T04:08:13;20.80;99.90
21031;DHT22;61072;47.808;7.636;2023-07-29T04:10:40;20.80;99.90
21031;DHT22;61072;47.808;7.636;2023-07-29T04:13:07;20.80;99.90
21031;DHT22;61072;47.808;7.636;2023-07-29T04:15:33;20.80;99.90
21031;DHT22;61072;47.808;7.636;2023-07-29T04:18:01;20.80;99.90
21031;DHT22;61072;47.808;7.636;2023-07-29T04:20:28;20.80;99.90
21031;DHT22;61072;47.808;7.636;2023-07-29T04:22:55;20.80;99.90
21031;DHT22;61072;47.808;7.636;2023-07-29T04:25:22;20.80;99.90
21031;DHT22;61072;47.808;7.636;2023-07-29T04:27:49;20.80;99.90
21031;DHT22;61072;47.808;7.636;2023-07-29T04:30:16;20.90;99.90
21031;DHT22;61072;47.808;7.636;2023-07-29T04:32:42;20.90;99.90
21031;DHT22;61072;47.808;7.636;2023-07-29T04:35:11;21.00;99.90
21031;DHT22;61072;47.808;7.636;2023-07-29T04:37:38;21.00;99.90
21031;DHT22;61072;47.808;7.636;2023-07-29T04:40:05;21.10;99.90
21031;DHT22;61072;47.808;7.636;2023-07-29T04:42:32;21.10;99.90
21031;DHT22;61072;47.808;7.636;2023-07-29T04:44:59;21.10;99.90
21031;DHT22;61072;47.808;7.636;2023-07-29T04:47:26;21.10;99.90
21031;DHT22;61072;47.808;7.636;2023-07-29T04:49:53;21.20;99.90
21031;DHT22;61072;47.808;7.636;2023-07-29T04:52:19;21.20;99.90
21031;DHT22;61072;47.808;7.636;2023-07-29T04:54:47;21.20;99.90
21031;DHT22;61072;47.808;7.636;2023-07-29T04:57:13;21.20;99.90
21031;DHT22;61072;47.808;7.636;2023-07-29T04:59:40;21.30;99.90
21031;DHT22;61072;47.808;7.636;2023-07-29T05:02:07;21.30;99.90
21031;DHT22;61072;47.808;7.636;2023-07-29T05:04:34;21.30;99.90
21031;DHT22;61072;47.808;7.636;2023-07-29T05:07:00;21.30;99.90
21031;DHT22;61072;47.808;7.636;2023-07-29T05:09:27;21.40;99.90
21031;DHT22;61072;47.808;7.636;2023-07-29T05:11:54;21.40;99.90
21031;DHT22;61072;47.808;7.636;2023-07-29T05:14:21;21.40;99.90
21031;DHT22;61072;47.808;7.636;2023-07-29T05:16:49;21.50;99.90
21031;DHT22;61072;47.808;7.636;2023-07-29T05:19:16;21.50;99.90
21031;DHT22;61072;47.808;7.636;2023-07-29T05:21:43;21.60;99.90
21031;DHT22;61072;47.808;7.636;2023-07-29T05:24:09;21.60;99.90
21031;DHT22;61072;47.808;7.636;2023-07-29T05:26:36;21.60;99.90
21031;DHT22;61072;47.808;7.636;2023-07-29T05:29:03;21.70;99.90
21031;DHT22;61072;47.808;7.636;2023-07-29T05:31:30;21.70;99.90
21031;DHT22;61072;47.808;7.636;2023-07-29T05:33:58;21.80;99.90
21031;DHT22;61072;47.808;7.636;2023-07-29T05:36:24;21.80;99.90
21031;DHT22;61072;47.808;7.636;2023-07-29T05:38:52;21.80;99.90
21031;DHT22;61072;47.808;7.636;2023-07-29T05:41:18;21.80;99.90
21031;DHT22;61072;47.808;7.636;2023-07-29T05:43:45;21.80;99.90
21031;DHT22;61072;47.808;7.636;2023-07-29T05:46:13;21.90;99.90
21031;DHT22;61072;47.808;7.636;2023-07-29T05:48:40;21.90;99.90
21031;DHT22;61072;47.808;7.636;2023-07-29T05:51:06;22.00;99.90
21031;DHT22;61072;47.808;7.636;2023-07-29T05:53:33;22.00;99.90
21031;DHT22;61072;47.808;7.636;2023-07-29T05:56:00;22.00;99.90
21031;DHT22;61072;47.808;7.636;2023-07-29T05:58:27;22.10;99.90
21031;DHT22;61072;47.808;7.636;2023-07-29T06:00:53;22.10;99.90
21031;DHT22;61072;47.808;7.636;2023-07-29T06:03:20;22.10;99.90
21031;DHT22;61072;47.808;7.636;2023-07-29T06:05:48;22.20;99.90
21031;DHT22;61072;47.808;7.636;2023-07-29T06:08:19;22.30;99.90
21031;DHT22;61072;47.808;7.636;2023-07-29T06:10:45;22.30;99.90
21031;DHT22;61072;47.808;7.636;2023-07-29T06:13:12;22.30;99.90
21031;DHT22;61072;47.808;7.636;2023-07-29T06:15:39;22.40;99.90
21031;DHT22;61072;47.808;7.636;2023-07-29T06:18:06;22.40;99.90
21031;DHT22;61072;47.808;7.636;2023-07-29T06:20:32;22.40;99.90
21031;DHT22;61072;47.808;7.636;2023-07-29T06:22:59;22.50;99.90
21031;DHT22;61072;47.808;7.636;2023-07-29T06:25:26;22.50;99.90
21031;DHT22;61072;47.808;7.636;2023-07-29T06:27:53;22.40;99.90
21031;DHT22;61072;47.808;7.636;2023-07-29T06:30:19;22.40;99.90
21031;DHT22;61072;47.808;7.636;2023-07-29T06:32:46;22.50;99.90
21031;DHT22;61072;47.808;7.636;2023-07-29T06:35:13;22.40;99.90
21031;DHT22;61072;47.808;7.636;2023-07-29T06:37:39;22.40;99.90
21031;DHT22;61072;47.808;7.636;2023-07-29T06:40:07;22.40;99.90
21031;DHT22;61072;47.808;7.636;2023-07-29T06:42:33;22.30;99.90
21031;DHT22;61072;47.808;7.636;2023-07-29T06:45:00;22.30;99.90
21031;DHT22;61072;47.808;7.636;2023-07-29T06:47:27;22.30;99.90
21031;DHT22;61072;47.808;7.636;2023-07-29T06:49:54;22.30;99.90
21031;DHT22;61072;47.808;7.636;2023-07-29T06:52:21;22.20;99.90
21031;DHT22;61072;47.808;7.636;2023-07-29T06:54:47;22.20;99.90
21031;DHT22;61072;47.808;7.636;2023-07-29T06:57:14;22.30;99.90
21031;DHT22;61072;47.808;7.636;2023-07-29T06:59:41;22.40;99.90
21031;DHT22;61072;47.808;7.636;2023-07-29T07:02:07;22.40;99.90
21031;DHT22;61072;47.808;7.636;2023-07-29T07:04:34;22.60;99.90
21031;DHT22;61072;47.808;7.636;2023-07-29T07:07:01;22.60;99.90
21031;DHT22;61072;47.808;7.636;2023-07-29T07:09:28;22.70;99.90
21031;DHT22;61072;47.808;7.636;2023-07-29T07:11:54;22.80;99.90
21031;DHT22;61072;47.808;7.636;2023-07-29T07:14:21;22.70;99.90
21031;DHT22;61072;47.808;7.636;2023-07-29T07:16:48;22.70;99.90
21031;DHT22;61072;47.808;7.636;2023-07-29T07:19:14;22.70;99.90
21031;DHT22;61072;47.808;7.636;2023-07-29T07:21:41;22.70;99.90
21031;DHT22;61072;47.808;7.636;2023-07-29T07:24:08;22.70;99.90
21031;DHT22;61072;47.808;7.636;2023-07-29T07:26:35;22.70;99.90
21031;DHT22;61072;47.808;7.636;2023-07-29T07:29:02;22.70;99.90
21031;DHT22;61072;47.808;7.636;2023-07-29T07:31:32;22.70;99.90
21031;DHT22;61072;47.808;7.636;2023-07-29T07:33:59;22.70;99.90
21031;DHT22;61072;47.808;7.636;2023-07-29T07:36:26;22.80;99.90
21031;DHT22;61072;47.808;7.636;2023-07-29T07:38:52;22.80;99.90
21031;DHT22;61072;47.808;7.636;2023-07-29T07:41:19;22.80;99.90
21031;DHT22;61072;47.808;7.636;2023-07-29T07:43:46;22.90;99.90
21031;DHT22;61072;47.808;7.636;2023-07-29T07:46:12;22.90;99.90
21031;DHT22;61072;47.808;7.636;2023-07-29T07:48:39;23.10;99.90
21031;DHT22;61072;47.808;7.636;2023-07-29T07:51:15;23.20;99.90
21031;DHT22;61072;47.808;7.636;2023-07-29T07:53:42;23.30;99.90
21031;DHT22;61072;47.808;7.636;2023-07-29T07:56:08;23.40;99.90
21031;DHT22;61072;47.808;7.636;2023-07-29T07:58:35;23.50;99.90
21031;DHT22;61072;47.808;7.636;2023-07-29T08:01:03;23.60;99.90
21031;DHT22;61072;47.808;7.636;2023-07-29T08:03:30;23.60;99.90
21031;DHT22;61072;47.808;7.636;2023-07-29T08:05:57;23.70;99.90
21031;DHT22;61072;47.808;7.636;2023-07-29T08:08:25;23.70;99.90
21031;DHT22;61072;47.808;7.636;2023-07-29T08:10:53;23.70;99.90
21031;DHT22;61072;47.808;7.636;2023-07-29T08:13:21;23.80;99.90
21031;DHT22;61072;47.808;7.636;2023-07-29T08:15:49;23.80;99.90
21031;DHT22;61072;47.808;7.636;2023-07-29T08:18:17;23.90;99.90
21031;DHT22;61072;47.808;7.636;2023-07-29T08:20:55;23.90;99.90
21031;DHT22;61072;47.808;7.636;2023-07-29T08:23:25;24.00;99.90
21031;DHT22;61072;47.808;7.636;2023-07-29T08:25:56;24.10;99.90
21031;DHT22;61072;47.808;7.636;2023-07-29T08:28:29;24.10;99.90
21031;DHT22;61072;47.808;7.636;2023-07-29T08:30:57;24.20;99.90
21031;DHT22;61072;47.808;7.636;2023-07-29T08:33:24;24.20;99.90
21031;DHT22;61072;47.808;7.636;2023-07-29T08:35:51;24.20;99.90
21031;DHT22;61072;47.808;7.636;2023-07-29T08:38:18;24.10;99.90
21031;DHT22;61072;47.808;7.636;2023-07-29T08:43:52;24.10;99.90
21031;DHT22;61072;47.808;7.636;2023-07-29T08:46:22;24.10;99.90
21031;DHT22;61072;47.808;7.636;2023-07-29T08:48:49;24.10;99.90
21031;DHT22;61072;47.808;7.636;2023-07-29T08:51:18;24.20;99.90
21031;DHT22;61072;47.808;7.636;2023-07-29T08:53:46;24.10;99.90
21031;DHT22;61072;47.808;7.636;2023-07-29T08:56:13;24.10;99.90
21031;DHT22;61072;47.808;7.636;2023-07-29T08:58:40;24.20;99.90
21031;DHT22;61072;47.808;7.636;2023-07-29T09:01:06;24.20;99.90
21031;DHT22;61072;47.808;7.636;2023-07-29T09:03:33;24.40;99.90
21031;DHT22;61072;47.808;7.636;2023-07-29T09:06:02;24.30;99.90
21031;DHT22;61072;47.808;7.636;2023-07-29T09:08:28;24.40;99.90
21031;DHT22;61072;47.808;7.636;2023-07-29T09:10:55;24.40;99.90
21031;DHT22;61072;47.808;7.636;2023-07-29T09:13:22;24.60;99.90
21031;DHT22;61072;47.808;7.636;2023-07-29T09:15:59;24.70;99.90
21031;DHT22;61072;47.808;7.636;2023-07-29T09:18:27;24.70;99.90
21031;DHT22;61072;47.808;7.636;2023-07-29T09:20:58;24.80;99.90
21031;DHT22;61072;47.808;7.636;2023-07-29T09:23:26;24.90;99.90
21031;DHT22;61072;47.808;7.636;2023-07-29T09:26:03;25.00;99.90
21031;DHT22;61072;47.808;7.636;2023-07-29T09:28:37;25.00;99.90
21031;DHT22;61072;47.808;7.636;2023-07-29T09:31:04;25.10;99.90
21031;DHT22;61072;47.808;7.636;2023-07-29T09:33:35;25.00;99.90
21031;DHT22;61072;47.808;7.636;2023-07-29T09:36:09;25.00;99.90
21031;DHT22;61072;47.808;7.636;2023-07-29T09:38:37;25.00;99.90
21031;DHT22;61072;47.808;7.636;2023-07-29T09:41:04;24.90;99.90
21031;DHT22;61072;47.808;7.636;2023-07-29T09:43:34;24.90;99.90
21031;DHT22;61072;47.808;7.636;2023-07-29T09:46:05;24.90;99.90
21031;DHT22;61072;47.808;7.636;2023-07-29T09:48:35;24.90;99.90
21031;DHT22;61072;47.808;7.636;2023-07-29T09:51:15;25.00;99.90
21031;DHT22;61072;47.808;7.636;2023-07-29T09:53:47;25.00;99.90
21031;DHT22;61072;47.808;7.636;2023-07-29T09:56:15;25.20;99.90
21031;DHT22;61072;47.808;7.636;2023-07-29T09:58:46;25.20;99.90
21031;DHT22;61072;47.808;7.636;2023-07-29T10:01:14;25.30;99.90
21031;DHT22;61072;47.808;7.636;2023-07-29T10:03:42;25.40;99.90
21031;DHT22;61072;47.808;7.636;2023-07-29T10:06:09;25.50;99.90
21031;DHT22;61072;47.808;7.636;2023-07-29T10:08:37;25.50;99.90
21031;DHT22;61072;47.808;7.636;2023-07-29T10:11:07;25.50;99.90
21031;DHT22;61072;47.808;7.636;2023-07-29T10:13:36;25.60;99.90
21031;DHT22;61072;47.808;7.636;2023-07-29T10:16:04;25.70;99.90
21031;DHT22;61072;47.808;7.636;2023-07-29T10:18:33;25.80;99.90
21031;DHT22;61072;47.808;7.636;2023-07-29T10:21:01;25.80;99.90
21031;DHT22;61072;47.808;7.636;2023-07-29T10:23:37;25.80;99.90
21031;DHT22;61072;47.808;7.636;2023-07-29T10:26:09;25.80;99.90
21031;DHT22;61072;47.808;7.636;2023-07-29T10:28:40;25.70;99.90
21031;DHT22;61072;47.808;7.636;2023-07-29T10:31:07;25.80;99.90
21031;DHT22;61072;47.808;7.636;2023-07-29T10:33:34;25.90;99.90
21031;DHT22;61072;47.808;7.636;2023-07-29T10:36:03;25.90;99.90
21031;DHT22;61072;47.808;7.636;2023-07-29T10:38:30;25.90;99.90
21031;DHT22;61072;47.808;7.636;2023-07-29T10:40:57;26.00;99.90
21031;DHT22;61072;47.808;7.636;2023-07-29T10:43:35;26.00;99.90
21031;DHT22;61072;47.808;7.636;2023-07-29T10:46:22;26.10;99.90
21031;DHT22;61072;47.808;7.636;2023-07-29T10:51:26;26.10;99.90
21031;DHT22;61072;47.808;7.636;2023-07-29T10:53:58;26.30;99.90
21031;DHT22;61072;47.808;7.636;2023-07-29T10:56:33;26.40;99.90
21031;DHT22;61072;47.808;7.636;2023-07-29T11:01:53;26.50;99.90
21031;DHT22;61072;47.808;7.636;2023-07-29T11:12:49;26.60;99.90
21031;DHT22;61072;47.808;7.636;2023-07-29T11:15:25;26.60;99.90
21031;DHT22;61072;47.808;7.636;2023-07-29T11:17:57;26.70;99.90
21031;DHT22;61072;47.808;7.636;2023-07-29T11:20:28;26.70;99.90
21031;DHT22;61072;47.808;7.636;2023-07-29T11:22:58;26.70;99.90
21031;DHT22;61072;47.808;7.636;2023-07-29T11:25:27;26.80;99.90
21031;DHT22;61072;47.808;7.636;2023-07-29T11:27:58;26.80;99.90
21031;DHT22;61072;47.808;7.636;2023-07-29T11:30:27;26.80;99.90
21031;DHT22;61072;47.808;7.636;2023-07-29T11:32:55;26.90;99.90
21031;DHT22;61072;47.808;7.636;2023-07-29T11:35:23;26.90;99.90
21031;DHT22;61072;47.808;7.636;2023-07-29T11:37:51;27.00;99.90
21031;DHT22;61072;47.808;7.636;2023-07-29T11:40:22;27.00;99.90
21031;DHT22;61072;47.808;7.636;2023-07-29T11:42:51;26.90;99.90
21031;DHT22;61072;47.808;7.636;2023-07-29T11:45:19;27.00;99.90
21031;DHT22;61072;47.808;7.636;2023-07-29T11:47:46;27.00;99.90
21031;DHT22;61072;47.808;7.636;2023-07-29T11:50:14;27.10;99.90
21031;DHT22;61072;47.808;7.636;2023-07-29T11:52:43;27.10;99.90
21031;DHT22;61072;47.808;7.636;2023-07-29T11:55:10;27.20;99.90
21031;DHT22;61072;47.808;7.636;2023-07-29T11:57:38;27.20;99.90
21031;DHT22;61072;47.808;7.636;2023-07-29T12:00:09;27.30;99.90
21031;DHT22;61072;47.808;7.636;2023-07-29T12:02:39;27.30;99.90
21031;DHT22;61072;47.808;7.636;2023-07-29T12:05:08;27.20;99.90
21031;DHT22;61072;47.808;7.636;2023-07-29T12:07:37;27.30;99.90
21031;DHT22;61072;47.808;7.636;2023-07-29T12:10:05;27.30;99.90
21031;DHT22;61072;47.808;7.636;2023-07-29T12:12:32;27.30;99.90
21031;DHT22;61072;47.808;7.636;2023-07-29T12:14:59;27.30;99.90
21031;DHT22;61072;47.808;7.636;2023-07-29T12:17:25;27.20;99.90
21031;DHT22;61072;47.808;7.636;2023-07-29T12:19:54;27.20;99.90
21031;DHT22;61072;47.808;7.636;2023-07-29T12:22:21;27.20;99.90
21031;DHT22;61072;47.808;7.636;2023-07-29T12:24:51;27.20;99.90
21031;DHT22;61072;47.808;7.636;2023-07-29T12:27:18;27.20;99.90
21031;DHT22;61072;47.808;7.636;2023-07-29T12:29:48;27.10;99.90
21031;DHT22;61072;47.808;7.636;2023-07-29T12:32:17;27.00;99.90
21031;DHT22;61072;47.808;7.636;2023-07-29T12:34:44;27.00;99.90
21031;DHT22;61072;47.808;7.636;2023-07-29T12:37:11;26.90;99.90
21031;DHT22;61072;47.808;7.636;2023-07-29T12:39:40;26.80;99.90
21031;DHT22;61072;47.808;7.636;2023-07-29T12:42:10;26.70;99.90
21031;DHT22;61072;47.808;7.636;2023-07-29T12:44:37;26.60;99.90
21031;DHT22;61072;47.808;7.636;2023-07-29T12:47:06;26.60;99.90
21031;DHT22;61072;47.808;7.636;2023-07-29T12:49:33;26.70;99.90
21031;DHT22;61072;47.808;7.636;2023-07-29T12:52:00;26.70;99.90
21031;DHT22;61072;47.808;7.636;2023-07-29T12:54:27;26.80;99.90
21031;DHT22;61072;47.808;7.636;2023-07-29T12:56:54;26.80;99.90
21031;DHT22;61072;47.808;7.636;2023-07-29T12:59:20;26.80;99.90
21031;DHT22;61072;47.808;7.636;2023-07-29T13:01:47;26.80;99.90
21031;DHT22;61072;47.808;7.636;2023-07-29T13:04:14;26.80;99.90
21031;DHT22;61072;47.808;7.636;2023-07-29T13:06:41;26.80;99.90
21031;DHT22;61072;47.808;7.636;2023-07-29T13:09:08;26.80;99.90
21031;DHT22;61072;47.808;7.636;2023-07-29T13:11:35;26.80;99.90
21031;DHT22;61072;47.808;7.636;2023-07-29T13:14:01;26.80;99.90
21031;DHT22;61072;47.808;7.636;2023-07-29T13:16:28;26.70;99.90
21031;DHT22;61072;47.808;7.636;2023-07-29T13:18:55;26.70;99.90
21031;DHT22;61072;47.808;7.636;2023-07-29T13:21:23;26.70;99.90
21031;DHT22;61072;47.808;7.636;2023-07-29T13:23:50;26.60;99.90
21031;DHT22;61072;47.808;7.636;2023-07-29T13:26:17;26.50;99.90
21031;DHT22;61072;47.808;7.636;2023-07-29T13:28:44;26.60;99.90
21031;DHT22;61072;47.808;7.636;2023-07-29T13:31:11;26.60;99.90
21031;DHT22;61072;47.808;7.636;2023-07-29T13:33:38;26.50;99.90
21031;DHT22;61072;47.808;7.636;2023-07-29T13:36:05;26.50;99.90
21031;DHT22;61072;47.808;7.636;2023-07-29T13:38:32;26.50;99.90
21031;DHT22;61072;47.808;7.636;2023-07-29T13:40:58;26.60;99.90
21031;DHT22;61072;47.808;7.636;2023-07-29T13:43:25;26.80;99.90
21031;DHT22;61072;47.808;7.636;2023-07-29T13:45:52;26.70;99.90
21031;DHT22;61072;47.808;7.636;2023-07-29T13:48:19;26.70;99.90
21031;DHT22;61072;47.808;7.636;2023-07-29T13:50:46;26.60;99.90
21031;DHT22;61072;47.808;7.636;2023-07-29T13:53:13;26.70;99.90
21031;DHT22;61072;47.808;7.636;2023-07-29T13:55:40;26.60;99.90
21031;DHT22;61072;47.808;7.636;2023-07-29T13:58:07;26.70;99.90
21031;DHT22;61072;47.808;7.636;2023-07-29T14:00:34;26.70;99.90
21031;DHT22;61072;47.808;7.636;2023-07-29T14:03:00;26.60;99.90
21031;DHT22;61072;47.808;7.636;2023-07-29T14:05:27;26.50;99.90
21031;DHT22;61072;47.808;7.636;2023-07-29T14:07:54;26.50;99.90
21031;DHT22;61072;47.808;7.636;2023-07-29T14:10:20;26.50;99.90
21031;DHT22;61072;47.808;7.636;2023-07-29T14:12:47;26.50;99.90
21031;DHT22;61072;47.808;7.636;2023-07-29T14:15:14;26.50;99.90
21031;DHT22;61072;47.808;7.636;2023-07-29T14:17:41;26.40;99.90
21031;DHT22;61072;47.808;7.636;2023-07-29T14:20:08;26.40;99.90
21031;DHT22;61072;47.808;7.636;2023-07-29T14:22:35;26.40;99.90
21031;DHT22;61072;47.808;7.636;2023-07-29T14:25:03;26.40;99.90
21031;DHT22;61072;47.808;7.636;2023-07-29T14:27:29;26.30;99.90
21031;DHT22;61072;47.808;7.636;2023-07-29T14:29:56;26.30;99.90
21031;DHT22;61072;47.808;7.636;2023-07-29T14:32:23;26.20;99.90
21031;DHT22;61072;47.808;7.636;2023-07-29T14:34:52;26.20;99.90
21031;DHT22;61072;47.808;7.636;2023-07-29T14:37:18;26.20;99.90
21031;DHT22;61072;47.808;7.636;2023-07-29T14:39:45;26.10;99.90
21031;DHT22;61072;47.808;7.636;2023-07-29T14:42:12;26.10;99.90
21031;DHT22;61072;47.808;7.636;2023-07-29T14:44:41;26.10;99.90
21031;DHT22;61072;47.808;7.636;2023-07-29T14:47:08;26.00;99.90
21031;DHT22;61072;47.808;7.636;2023-07-29T14:49:35;25.90;99.90
21031;DHT22;61072;47.808;7.636;2023-07-29T14:52:01;25.80;99.90
21031;DHT22;61072;47.808;7.636;2023-07-29T14:54:28;25.80;99.90
21031;DHT22;61072;47.808;7.636;2023-07-29T14:56:55;25.70;99.90
21031;DHT22;61072;47.808;7.636;2023-07-29T14:59:22;25.70;99.90
21031;DHT22;61072;47.808;7.636;2023-07-29T15:01:48;25.60;99.90
21031;DHT22;61072;47.808;7.636;2023-07-29T15:04:15;25.60;99.90
21031;DHT22;61072;47.808;7.636;2023-07-29T15:06:42;25.50;99.90
21031;DHT22;61072;47.808;7.636;2023-07-29T15:09:09;25.60;99.90
21031;DHT22;61072;47.808;7.636;2023-07-29T15:11:36;25.70;99.90
21031;DHT22;61072;47.808;7.636;2023-07-29T15:14:03;25.70;99.90
21031;DHT22;61072;47.808;7.636;2023-07-29T15:16:30;25.70;99.90
21031;DHT22;61072;47.808;7.636;2023-07-29T15:18:58;25.70;99.90
21031;DHT22;61072;47.808;7.636;2023-07-29T15:21:24;25.60;99.90
21031;DHT22;61072;47.808;7.636;2023-07-29T15:23:51;25.60;99.90
21031;DHT22;61072;47.808;7.636;2023-07-29T15:26:18;25.60;99.90
21031;DHT22;61072;47.808;7.636;2023-07-29T15:28:44;25.60;99.90
21031;DHT22;61072;47.808;7.636;2023-07-29T15:31:13;25.50;99.90
21031;DHT22;61072;47.808;7.636;2023-07-29T15:33:40;25.50;99.90
21031;DHT22;61072;47.808;7.636;2023-07-29T15:36:06;25.40;99.90
21031;DHT22;61072;47.808;7.636;2023-07-29T15:38:33;25.30;99.90
21031;DHT22;61072;47.808;7.636;2023-07-29T15:41:02;25.40;99.90
21031;DHT22;61072;47.808;7.636;2023-07-29T15:43:28;25.40;99.90
21031;DHT22;61072;47.808;7.636;2023-07-29T15:45:56;25.40;99.90
21031;DHT22;61072;47.808;7.636;2023-07-29T15:48:24;25.30;99.90
21031;DHT22;61072;47.808;7.636;2023-07-29T15:50:50;25.40;99.90
21031;DHT22;61072;47.808;7.636;2023-07-29T15:53:17;25.40;99.90
21031;DHT22;61072;47.808;7.636;2023-07-29T15:55:44;25.40;99.90
21031;DHT22;61072;47.808;7.636;2023-07-29T15:58:11;25.30;99.90